map of SPZ home
Great Circle Mapper logo
SPZ - Airport
Location
City:  Springdale, Arkansas, United States
Name:Springdale Municipal Airport
ICAO / IATA:KASG / SPZ
FAA:ASG

Details
Type:Airport (Airfield)
Use:Public/Civil
Latitude:3610'35"N (36.176389)
Longitude:9407'09"W (-94.119249)
Datum:WGS 1984
Elevation:1353 ft (412 m)
Runways:1
Longest:5302 × 76 ft (1616 × 23 m), paved

Time
Time Zone:UTC-6 (DST-5)
Local Time:

Weather
METAR:KASG 240148Z 00000KT 10SM OVC048 15/13 A3014 RMK LAST

Related Locations
Nearby:
Farthest:MGV: 10786 mi / 17359 km
Margaret River, WA, AU

Find:

   beyond  
but within

Other Information
Maps:
NOTAMs:
Links:
Sources:

  
flag of United States
flag of Arkansas
  

Airport Diagram

Airport diagram for SPZ

Airport diagram PDF

Sectional Chart

Flight Planning
at skyvector.com

Satellite Image

Google Maps Satellite View

 

Copyright © 2004-2014 Karl L. Swartz. All rights reserved.
The Great Circle Mapper name and logo are trademarks of the Great Circle Mapper.
All other trademarks mentioned herein belong to their respective owners.
Please see credits for attibutions and further copyright information.

  Follow gcmap on Facebook Follow gcmap on Twitter

hCard Microformat

Geo Microformat